< < Back
Terminal Aerodrome Forecast


Current Version              Previous Versions:   1  2  3  4  5  6  7  8  9  

Terminal Aerodrome Forecast

643
FTUS44 KMRX 181257 AAA
TAFTYS
TAF AMD
KTYS 181257Z 1813/1912 00000KT 1SM BR SCT001 BKN090
      TEMPO 1813/1814 1/2SM FG BKN002
     FM181400 04003KT 6SM BR SCT007 BKN150
      TEMPO 1814/1815 3SM BR BKN007
     FM181500 04008KT P6SM BKN150
     FM191000 04007KT 4SM -SHRA OVC035=

Latest METAR

816
SAUS80 KWBC 181300 RRB
MTRTYS
METAR KTYS 181253Z 03005KT 1/2SM R23R/1400V2000FT FG SCT001 OVC090 15/15
A3002 RMK AO2 SLP159 T01500150 $


USA.gov is the U.S. government's official web portal to all federal, state and local government web resources and services.